createdAt,value
2019-02-10T00:01:55.274Z,99.90
2019-02-10T00:04:22.988Z,99.90
2019-02-10T00:07:00.288Z,99.90
2019-02-10T00:09:27.848Z,99.90
2019-02-10T00:11:55.512Z,99.90
2019-02-10T00:14:23.258Z,99.90
2019-02-10T00:16:50.941Z,99.90
2019-02-10T00:19:18.584Z,99.90
2019-02-10T00:21:46.218Z,99.90
2019-02-10T00:26:41.399Z,99.90
2019-02-10T00:29:08.991Z,99.90
2019-02-10T00:31:36.572Z,99.90
2019-02-10T00:34:04.162Z,99.90
2019-02-10T00:36:33.329Z,99.90
2019-02-10T00:39:01.258Z,99.90
2019-02-10T00:41:28.904Z,99.90
2019-02-10T00:43:56.633Z,99.90
2019-02-10T00:46:24.292Z,99.90
2019-02-10T00:48:51.868Z,99.90
2019-02-10T00:51:19.433Z,99.90
2019-02-10T00:53:47.183Z,99.90
2019-02-10T00:56:14.816Z,99.90
2019-02-10T00:58:42.441Z,99.90
2019-02-10T01:01:10.087Z,99.90
2019-02-10T01:03:37.736Z,99.90
2019-02-10T01:06:05.356Z,99.90
2019-02-10T01:08:33.001Z,99.90
2019-02-10T01:11:00.698Z,99.90
2019-02-10T01:13:28.312Z,99.90
2019-02-10T01:15:59.222Z,99.90
2019-02-10T01:18:26.780Z,99.90
2019-02-10T01:20:54.506Z,99.90
2019-02-10T01:23:22.106Z,99.90
2019-02-10T01:25:49.770Z,99.90
2019-02-10T01:28:17.568Z,99.90
2019-02-10T01:30:45.095Z,99.90
2019-02-10T01:33:12.722Z,99.90
2019-02-10T01:35:40.467Z,99.90
2019-02-10T01:38:08.173Z,99.90
2019-02-10T01:40:35.808Z,99.90
2019-02-10T01:43:03.397Z,99.90
2019-02-10T01:45:31.033Z,99.90
2019-02-10T01:47:58.642Z,99.90
2019-02-10T01:50:26.226Z,99.40
2019-02-10T01:52:53.989Z,99.00
2019-02-10T01:55:21.623Z,98.60
2019-02-10T01:57:49.276Z,98.30
2019-02-10T02:00:17.047Z,97.60
2019-02-10T02:02:44.946Z,97.40
2019-02-10T02:05:12.944Z,97.30
2019-02-10T02:12:45.469Z,97.40
2019-02-10T02:15:13.826Z,97.60
2019-02-10T02:17:41.527Z,97.30
2019-02-10T02:20:09.752Z,96.60
2019-02-10T02:22:37.423Z,96.80
2019-02-10T02:25:08.163Z,97.10
2019-02-10T02:27:35.909Z,97.40
2019-02-10T02:30:05.123Z,98.00
2019-02-10T02:32:32.833Z,98.40
2019-02-10T02:35:00.596Z,98.20
2019-02-10T02:37:28.372Z,98.60
2019-02-10T02:39:56.050Z,99.00
2019-02-10T02:42:23.944Z,99.90
2019-02-10T02:44:51.570Z,99.90
2019-02-10T02:47:19.266Z,98.80
2019-02-10T02:49:46.964Z,97.80
2019-02-10T02:52:14.749Z,97.90
2019-02-10T02:54:42.334Z,98.60
2019-02-10T02:57:09.985Z,99.00
2019-02-10T02:59:37.824Z,99.30
2019-02-10T03:02:05.467Z,99.60
2019-02-10T03:04:34.952Z,99.60
2019-02-10T03:07:02.543Z,99.90
2019-02-10T03:09:30.286Z,99.90
2019-02-10T03:14:25.526Z,99.90
2019-02-10T03:16:53.304Z,99.90
2019-02-10T03:19:20.905Z,99.50
2019-02-10T03:21:48.600Z,99.80
2019-02-10T03:24:16.202Z,99.40
2019-02-10T03:29:11.389Z,99.10
2019-02-10T03:34:06.584Z,99.40
2019-02-10T03:36:34.235Z,99.20
2019-02-10T03:39:02.009Z,98.60
2019-02-10T03:41:29.614Z,99.10
2019-02-10T03:43:57.287Z,99.80
2019-02-10T03:46:24.993Z,99.80
2019-02-10T03:48:52.739Z,99.90
2019-02-10T03:51:20.411Z,99.90
2019-02-10T03:53:47.980Z,99.90
2019-02-10T03:56:15.593Z,99.90
2019-02-10T04:01:10.805Z,99.90
2019-02-10T04:03:38.491Z,99.90
2019-02-10T04:06:06.153Z,99.90
2019-02-10T04:08:33.801Z,99.80
2019-02-10T04:11:01.424Z,99.90
2019-02-10T04:13:29.065Z,99.90
2019-02-10T04:15:56.651Z,99.90
2019-02-10T04:18:24.260Z,99.90
2019-02-10T04:20:52.153Z,99.90
2019-02-10T04:23:19.933Z,99.90
2019-02-10T04:28:15.271Z,99.90
2019-02-10T04:30:42.921Z,99.90
2019-02-10T04:33:10.565Z,99.90
2019-02-10T04:35:38.120Z,99.90
2019-02-10T04:38:05.789Z,99.90
2019-02-10T04:40:33.498Z,99.90
2019-02-10T04:43:01.155Z,99.90
2019-02-10T04:45:28.918Z,99.90
2019-02-10T04:47:56.599Z,99.90
2019-02-10T04:50:24.220Z,99.90
2019-02-10T04:52:51.974Z,99.90
2019-02-10T04:55:19.556Z,99.90
2019-02-10T04:57:47.200Z,99.90
2019-02-10T05:00:14.877Z,99.90
2019-02-10T05:02:42.559Z,99.90
2019-02-10T05:05:10.139Z,99.90
2019-02-10T05:07:37.784Z,99.90
2019-02-10T05:10:06.150Z,99.90
2019-02-10T05:12:33.828Z,99.90
2019-02-10T05:15:01.428Z,99.90
2019-02-10T05:17:29.080Z,99.90
2019-02-10T05:19:56.772Z,99.90
2019-02-10T05:22:24.536Z,99.90
2019-02-10T05:24:52.156Z,99.90
2019-02-10T05:27:19.800Z,99.90
2019-02-10T05:29:47.493Z,99.90
2019-02-10T05:32:15.306Z,99.90
2019-02-10T05:34:43.015Z,99.90
2019-02-10T05:37:10.630Z,99.90
2019-02-10T05:39:38.385Z,99.90
2019-02-10T05:42:05.996Z,99.90
2019-02-10T05:44:33.719Z,99.90
2019-02-10T05:47:01.463Z,99.90
2019-02-10T05:49:29.081Z,99.90
2019-02-10T05:51:56.729Z,99.90
2019-02-10T05:54:24.396Z,99.90
2019-02-10T05:56:52.164Z,99.90
2019-02-10T05:59:19.811Z,99.90
2019-02-10T06:02:40.391Z,99.90
2019-02-10T06:05:19.232Z,99.90
2019-02-10T06:13:10.755Z,99.90
2019-02-10T06:15:38.399Z,99.90
2019-02-10T06:18:06.016Z,99.90
2019-02-10T06:20:33.586Z,99.90
2019-02-10T06:23:01.387Z,99.90
2019-02-10T06:25:29.053Z,99.90
2019-02-10T06:27:56.686Z,99.90
2019-02-10T06:30:24.325Z,99.90
2019-02-10T06:32:51.940Z,99.90
2019-02-10T06:35:19.639Z,99.90
2019-02-10T06:37:47.210Z,99.90
2019-02-10T06:40:14.824Z,99.90
2019-02-10T06:42:42.622Z,99.90
2019-02-10T06:45:11.765Z,99.20
2019-02-10T06:47:39.581Z,99.10
2019-02-10T06:50:09.896Z,99.10
2019-02-10T06:52:38.010Z,98.90
2019-02-10T06:55:07.420Z,97.70
2019-02-10T06:57:35.095Z,97.40
2019-02-10T07:00:20.544Z,96.70
2019-02-10T07:03:28.848Z,96.70
2019-02-10T07:08:30.382Z,96.30
2019-02-10T07:10:53.458Z,96.00
2019-02-10T07:16:28.564Z,95.70
2019-02-10T07:19:32.287Z,94.70
2019-02-10T07:22:00.888Z,94.70
2019-02-10T07:24:43.829Z,94.20
2019-02-10T07:27:27.474Z,92.90
2019-02-10T07:30:48.982Z,91.40
2019-02-10T07:33:41.191Z,92.10
2019-02-10T07:36:36.622Z,92.20
2019-02-10T07:39:47.635Z,88.90
2019-02-10T07:42:43.864Z,88.50
2019-02-10T07:45:54.544Z,89.10
2019-02-10T07:48:56.487Z,88.40
2019-02-10T07:51:53.539Z,87.40
2019-02-10T07:55:07.183Z,87.80
2019-02-10T07:58:16.448Z,87.80
2019-02-10T08:03:53.540Z,86.60
2019-02-10T08:12:21.956Z,87.90
2019-02-10T08:15:15.750Z,87.70
2019-02-10T08:17:53.597Z,85.60
2019-02-10T08:20:53.129Z,85.30
2019-02-10T08:26:21.341Z,85.30
2019-02-10T08:32:03.883Z,84.60
2019-02-10T08:35:07.962Z,81.90
2019-02-10T08:38:16.040Z,82.50
2019-02-10T08:41:20.719Z,82.40
2019-02-10T08:44:22.477Z,82.20
2019-02-10T08:47:22.835Z,79.20
2019-02-10T08:50:28.215Z,79.90
2019-02-10T08:53:16.308Z,79.60
2019-02-10T08:55:44.221Z,78.00
2019-02-10T08:58:11.824Z,78.60
2019-02-10T09:00:39.699Z,77.50
2019-02-10T09:03:07.419Z,76.80
2019-02-10T09:05:35.086Z,72.80
2019-02-10T09:08:02.657Z,72.80
2019-02-10T09:10:32.828Z,73.70
2019-02-10T09:13:00.499Z,75.50
2019-02-10T09:15:28.166Z,74.00
2019-02-10T09:17:55.798Z,73.20
2019-02-10T09:20:23.679Z,73.00
2019-02-10T09:22:51.368Z,71.70
2019-02-10T09:25:18.980Z,73.10
2019-02-10T09:27:46.687Z,74.70
2019-02-10T09:32:41.829Z,74.40
2019-02-10T09:37:37.032Z,73.30
2019-02-10T09:40:05.077Z,72.40
2019-02-10T09:42:32.772Z,72.50
2019-02-10T09:45:00.342Z,71.30
2019-02-10T09:47:28.120Z,71.20
2019-02-10T09:49:55.811Z,72.20
2019-02-10T09:52:23.534Z,68.40
2019-02-10T09:54:51.146Z,68.00
2019-02-10T09:57:18.860Z,67.30
2019-02-10T09:59:46.613Z,67.90
2019-02-10T10:02:14.420Z,67.10
2019-02-10T10:04:42.048Z,67.80
2019-02-10T10:07:09.686Z,67.80
2019-02-10T10:09:37.298Z,68.70
2019-02-10T10:12:04.928Z,69.00
2019-02-10T10:14:32.577Z,70.80
2019-02-10T10:17:00.169Z,69.90
2019-02-10T10:19:27.846Z,70.50
2019-02-10T10:21:55.625Z,72.20
2019-02-10T10:24:23.271Z,72.90
2019-02-10T10:26:50.852Z,73.60
2019-02-10T10:29:18.431Z,74.10
2019-02-10T10:31:46.153Z,73.00
2019-02-10T10:34:13.919Z,73.50
2019-02-10T10:36:41.569Z,72.40
2019-02-10T10:39:09.204Z,72.10
2019-02-10T10:41:37.020Z,73.10
2019-02-10T10:44:04.605Z,71.00
2019-02-10T10:46:32.234Z,71.00
2019-02-10T10:49:00.005Z,72.40
2019-02-10T10:51:27.573Z,71.10
2019-02-10T10:53:55.245Z,68.50
2019-02-10T10:56:22.925Z,66.80
2019-02-10T10:58:50.526Z,64.30
2019-02-10T11:01:25.119Z,65.20
2019-02-10T11:03:47.934Z,64.90
2019-02-10T11:06:15.523Z,65.90
2019-02-10T11:08:43.468Z,65.20
2019-02-10T11:11:11.394Z,66.00
2019-02-10T11:13:41.170Z,63.50
2019-02-10T11:16:08.631Z,62.30
2019-02-10T11:18:36.344Z,63.80
2019-02-10T11:21:03.938Z,62.70
2019-02-10T11:23:31.534Z,62.90
2019-02-10T11:25:59.138Z,63.50
2019-02-10T11:28:26.940Z,62.80
2019-02-10T11:30:54.582Z,62.70
2019-02-10T11:33:22.232Z,59.90
2019-02-10T11:35:49.790Z,59.90
2019-02-10T11:38:17.652Z,59.90
2019-02-10T11:40:45.219Z,59.50
2019-02-10T11:43:12.829Z,58.80
2019-02-10T11:45:40.487Z,59.50
2019-02-10T11:48:08.143Z,60.00
2019-02-10T11:50:35.739Z,59.40
2019-02-10T11:53:03.452Z,58.10
2019-02-10T11:55:31.177Z,57.80
2019-02-10T11:57:59.247Z,57.90
2019-02-10T12:00:26.947Z,57.40
2019-02-10T12:02:54.547Z,55.10
2019-02-10T12:05:22.723Z,56.40
2019-02-10T12:07:50.485Z,55.30
2019-02-10T12:10:18.093Z,54.60
2019-02-10T12:12:47.588Z,55.90
2019-02-10T12:15:15.357Z,54.60
2019-02-10T12:17:42.964Z,54.00
2019-02-10T12:20:10.793Z,54.10
2019-02-10T12:22:49.981Z,53.20
2019-02-10T12:25:13.603Z,53.10
2019-02-10T12:27:41.323Z,53.20
2019-02-10T12:30:11.864Z,53.60
2019-02-10T12:32:39.620Z,54.70
2019-02-10T12:35:07.638Z,54.50
2019-02-10T12:37:35.357Z,54.80
2019-02-10T12:40:03.387Z,54.80
2019-02-10T12:42:31.256Z,55.00
2019-02-10T12:44:59.186Z,56.20
2019-02-10T12:47:26.932Z,57.40
2019-02-10T12:49:54.699Z,57.20
2019-02-10T12:52:22.396Z,56.10
2019-02-10T12:54:50.092Z,56.10
2019-02-10T12:57:17.824Z,55.70
2019-02-10T12:59:45.473Z,56.50
2019-02-10T13:02:13.529Z,55.80
2019-02-10T13:04:41.269Z,55.20
2019-02-10T13:07:09.207Z,54.90
2019-02-10T13:09:36.851Z,55.10
2019-02-10T13:12:04.662Z,56.60
2019-02-10T13:14:32.287Z,55.50
2019-02-10T13:17:00.036Z,56.00
2019-02-10T13:19:27.695Z,56.30
2019-02-10T13:21:55.421Z,57.60
2019-02-10T13:24:23.037Z,58.40
2019-02-10T13:26:50.763Z,60.20
2019-02-10T13:29:18.624Z,59.00
2019-02-10T13:31:46.395Z,58.30
2019-02-10T13:34:14.175Z,59.40
2019-02-10T13:36:41.975Z,59.30
2019-02-10T13:39:10.230Z,60.10
2019-02-10T13:41:37.310Z,60.10
2019-02-10T13:44:06.029Z,60.10
2019-02-10T13:46:33.622Z,61.00
2019-02-10T13:49:01.369Z,59.70
2019-02-10T13:51:29.157Z,60.50
2019-02-10T13:53:56.897Z,59.60
2019-02-10T13:56:24.672Z,60.30
2019-02-10T13:58:52.285Z,61.00
2019-02-10T14:01:19.964Z,60.90
2019-02-10T14:03:47.695Z,61.50
2019-02-10T14:06:15.504Z,61.40
2019-02-10T14:08:43.178Z,62.10
2019-02-10T14:11:11.107Z,60.20
2019-02-10T14:13:38.809Z,61.20
2019-02-10T14:16:06.561Z,63.90
2019-02-10T14:18:34.254Z,62.50
2019-02-10T14:21:02.611Z,61.20
2019-02-10T14:23:30.480Z,60.80
2019-02-10T14:25:58.289Z,62.00
2019-02-10T14:28:25.973Z,60.90
2019-02-10T14:30:53.766Z,60.90
2019-02-10T14:33:21.827Z,60.90
2019-02-10T14:35:49.514Z,59.90
2019-02-10T14:38:17.219Z,59.30
2019-02-10T14:40:45.119Z,59.30
2019-02-10T14:43:12.758Z,60.70
2019-02-10T14:45:40.441Z,60.90
2019-02-10T14:48:08.157Z,60.90
2019-02-10T14:50:35.871Z,60.10
2019-02-10T14:53:03.916Z,60.40
2019-02-10T14:55:31.634Z,63.10
2019-02-10T15:00:26.887Z,61.10
2019-02-10T15:05:22.890Z,61.80
2019-02-10T15:07:50.694Z,62.40
2019-02-10T15:10:18.800Z,63.90
2019-02-10T15:12:46.639Z,64.10
2019-02-10T15:15:15.631Z,64.50
2019-02-10T15:17:43.226Z,64.60
2019-02-10T15:20:10.888Z,63.90
2019-02-10T15:22:41.046Z,62.90
2019-02-10T15:25:09.250Z,64.00
2019-02-10T15:27:37.554Z,63.60
2019-02-10T15:30:06.497Z,63.80
2019-02-10T15:32:34.274Z,64.20
2019-02-10T15:35:02.310Z,64.60
2019-02-10T15:37:30.089Z,64.90
2019-02-10T15:39:59.741Z,65.30
2019-02-10T15:42:27.348Z,65.60
2019-02-10T15:44:55.125Z,66.70
2019-02-10T15:49:50.567Z,66.80
2019-02-10T15:52:18.433Z,67.20
2019-02-10T15:54:46.135Z,68.30
2019-02-10T15:57:13.787Z,68.20
2019-02-10T15:59:41.593Z,68.70
2019-02-10T16:02:09.253Z,68.70
2019-02-10T16:04:36.944Z,68.80
2019-02-10T16:07:04.586Z,69.50
2019-02-10T16:09:32.296Z,69.60
2019-02-10T16:12:00.104Z,70.30
2019-02-10T16:14:31.123Z,71.00
2019-02-10T16:16:59.419Z,71.90
2019-02-10T16:19:28.019Z,72.70
2019-02-10T16:21:55.907Z,73.50
2019-02-10T16:26:53.199Z,73.90
2019-02-10T16:29:21.386Z,74.70
2019-02-10T16:31:49.229Z,74.20
2019-02-10T16:34:16.901Z,75.10
2019-02-10T16:36:44.696Z,75.20
2019-02-10T16:39:12.908Z,74.60
2019-02-10T16:41:40.720Z,74.80
2019-02-10T16:44:08.354Z,74.30
2019-02-10T16:49:03.763Z,71.60
2019-02-10T16:51:31.539Z,71.30
2019-02-10T16:53:59.217Z,72.10
2019-02-10T16:56:26.878Z,71.70
2019-02-10T16:58:54.707Z,72.00
2019-02-10T17:01:22.299Z,71.50
2019-02-10T17:03:49.929Z,71.40
2019-02-10T17:06:17.747Z,71.90
2019-02-10T17:08:45.377Z,72.00
2019-02-10T17:11:14.390Z,72.20
2019-02-10T17:13:42.397Z,72.90
2019-02-10T17:16:10.224Z,73.80
2019-02-10T17:18:38.026Z,74.40
2019-02-10T17:21:05.872Z,75.00
2019-02-10T17:23:33.573Z,75.40
2019-02-10T17:26:01.453Z,76.30
2019-02-10T17:28:29.208Z,76.60
2019-02-10T17:30:56.882Z,75.90
2019-02-10T17:33:24.468Z,77.40
2019-02-10T17:35:52.195Z,76.70
2019-02-10T17:38:19.831Z,73.90
2019-02-10T17:41:10.433Z,73.50
2019-02-10T17:43:38.145Z,74.10
2019-02-10T17:46:05.779Z,73.90
2019-02-10T17:48:33.617Z,72.30
2019-02-10T17:51:01.483Z,72.30
2019-02-10T17:53:29.187Z,73.70
2019-02-10T17:55:56.836Z,71.60
2019-02-10T17:58:24.499Z,71.80
2019-02-10T18:00:52.175Z,72.60
2019-02-10T18:03:19.891Z,72.70
2019-02-10T18:05:47.717Z,72.90
2019-02-10T18:08:15.439Z,73.60
2019-02-10T18:13:10.894Z,72.80
2019-02-10T18:16:06.878Z,73.80
2019-02-10T18:18:59.801Z,74.90
2019-02-10T18:21:42.634Z,74.90
2019-02-10T18:24:44.709Z,74.80
2019-02-10T18:27:31.991Z,75.40
2019-02-10T18:30:19.223Z,76.50
2019-02-10T18:32:56.278Z,77.50
2019-02-10T18:35:40.711Z,76.40
2019-02-10T18:38:30.675Z,77.20
2019-02-10T18:41:11.564Z,77.60
2019-02-10T18:43:51.100Z,80.10
2019-02-10T18:49:11.775Z,79.60
2019-02-10T18:52:10.598Z,79.20
2019-02-10T18:54:55.791Z,79.60
2019-02-10T18:57:35.845Z,79.60
2019-02-10T19:00:24.315Z,81.90
2019-02-10T19:03:17.318Z,80.30
2019-02-10T19:06:03.013Z,79.00
2019-02-10T19:08:39.117Z,79.10
2019-02-10T19:11:26.438Z,79.30
2019-02-10T19:16:55.484Z,79.30
2019-02-10T19:20:00.709Z,80.00
2019-02-10T19:22:46.098Z,80.80
2019-02-10T19:25:23.212Z,79.60
2019-02-10T19:28:08.615Z,78.30
2019-02-10T19:30:50.930Z,79.40
2019-02-10T19:33:36.462Z,79.40
2019-02-10T19:36:35.744Z,78.50
2019-02-10T19:39:27.524Z,78.20
2019-02-10T19:42:20.238Z,78.90
2019-02-10T19:45:19.832Z,75.90
2019-02-10T19:48:05.768Z,76.00
2019-02-10T19:53:58.682Z,76.30
2019-02-10T19:56:54.609Z,76.20
2019-02-10T19:59:40.204Z,76.20
2019-02-10T20:02:29.255Z,75.90
2019-02-10T20:05:10.564Z,76.20
2019-02-10T20:08:15.624Z,76.40
2019-02-10T20:11:05.314Z,77.00
2019-02-10T20:13:38.483Z,76.60
2019-02-10T20:16:20.446Z,77.30
2019-02-10T20:19:13.610Z,76.80
2019-02-10T20:22:12.456Z,77.80
2019-02-10T20:24:50.982Z,79.30
2019-02-10T20:27:43.937Z,78.00
2019-02-10T20:30:31.153Z,77.00
2019-02-10T20:33:16.742Z,75.90
2019-02-10T20:36:16.042Z,75.00
2019-02-10T20:39:03.064Z,75.70
2019-02-10T20:41:40.134Z,75.70
2019-02-10T20:44:32.845Z,75.00
2019-02-10T20:50:03.629Z,74.40
2019-02-10T20:52:49.180Z,73.10
2019-02-10T20:55:39.176Z,74.80
2019-02-10T21:01:14.087Z,75.20
2019-02-10T21:04:07.133Z,75.90
2019-02-10T21:06:57.165Z,75.90
2019-02-10T21:09:42.983Z,75.70
2019-02-10T21:12:42.367Z,76.30
2019-02-10T21:15:35.400Z,77.10
2019-02-10T21:18:28.530Z,76.00
2019-02-10T21:21:05.265Z,75.60
2019-02-10T21:24:01.522Z,75.50
2019-02-10T21:26:48.549Z,75.50
2019-02-10T21:29:38.275Z,76.10
2019-02-10T21:32:34.292Z,75.00
2019-02-10T21:35:15.467Z,74.90
2019-02-10T21:38:11.713Z,75.10
2019-02-10T21:41:07.391Z,75.60
2019-02-10T21:43:51.071Z,75.40
2019-02-10T21:46:25.888Z,76.30
2019-02-10T21:49:03.305Z,77.00
2019-02-10T21:51:30.976Z,77.00
2019-02-10T21:53:58.597Z,77.60
2019-02-10T21:56:26.216Z,76.60
2019-02-10T21:58:53.794Z,77.50
2019-02-10T22:01:21.433Z,77.60
2019-02-10T22:03:49.081Z,78.20
2019-02-10T22:06:16.817Z,79.10
2019-02-10T22:08:44.505Z,77.70
2019-02-10T22:11:12.196Z,77.00
2019-02-10T22:13:40.051Z,79.70
2019-02-10T22:16:07.655Z,78.10
2019-02-10T22:18:35.172Z,77.50
2019-02-10T22:21:02.924Z,78.00
2019-02-10T22:23:30.606Z,79.40
2019-02-10T22:25:58.287Z,78.90
2019-02-10T22:28:25.823Z,79.70
2019-02-10T22:30:53.567Z,78.40
2019-02-10T22:33:21.217Z,79.20
2019-02-10T22:35:48.881Z,79.70
2019-02-10T22:38:16.477Z,78.90
2019-02-10T22:40:44.088Z,78.60
2019-02-10T22:43:11.675Z,78.80
2019-02-10T22:45:39.274Z,81.00
2019-02-10T22:48:06.879Z,79.20
2019-02-10T22:50:34.556Z,78.70
2019-02-10T22:53:02.212Z,78.40
2019-02-10T22:55:29.869Z,78.90
2019-02-10T22:57:57.498Z,77.40
2019-02-10T23:03:16.617Z,82.40
2019-02-10T23:05:44.683Z,83.20
2019-02-10T23:08:12.533Z,85.60
2019-02-10T23:10:40.218Z,87.10
2019-02-10T23:13:07.955Z,87.50
2019-02-10T23:15:35.822Z,88.80
2019-02-10T23:18:03.752Z,88.40
2019-02-10T23:20:31.812Z,88.80
2019-02-10T23:22:59.682Z,90.50
2019-02-10T23:25:27.361Z,89.90
2019-02-10T23:27:55.096Z,91.20
2019-02-10T23:30:22.928Z,91.80
2019-02-10T23:32:50.839Z,89.80
2019-02-10T23:35:18.762Z,93.50
2019-02-10T23:37:46.662Z,95.90
2019-02-10T23:40:14.775Z,97.70
2019-02-10T23:42:42.949Z,98.40
2019-02-10T23:45:10.568Z,98.60
2019-02-10T23:47:38.434Z,99.50
2019-02-10T23:50:08.479Z,99.90
2019-02-10T23:52:36.737Z,96.60
2019-02-10T23:55:08.187Z,98.00
2019-02-10T23:57:36.029Z,96.90
